sensor_id;sensor_type;location;lat;lon;timestamp;P1;durP1;ratioP1;P2;durP2;ratioP2
12896;SDS011;6516;35.028;32.372;2022-12-18T00:01:25;50.57;;;25.93;;
12896;SDS011;6516;35.028;32.372;2022-12-18T00:03:56;51.35;;;26.15;;
12896;SDS011;6516;35.028;32.372;2022-12-18T00:06:25;46.63;;;25.90;;
12896;SDS011;6516;35.028;32.372;2022-12-18T00:08:56;47.13;;;25.85;;
12896;SDS011;6516;35.028;32.372;2022-12-18T00:11:25;53.83;;;26.15;;
12896;SDS011;6516;35.028;32.372;2022-12-18T00:13:56;48.93;;;25.80;;
12896;SDS011;6516;35.028;32.372;2022-12-18T00:16:26;43.63;;;24.02;;
12896;SDS011;6516;35.028;32.372;2022-12-18T00:18:59;45.83;;;24.40;;
12896;SDS011;6516;35.028;32.372;2022-12-18T00:21:27;45.35;;;24.98;;
12896;SDS011;6516;35.028;32.372;2022-12-18T00:23:58;50.28;;;25.33;;
12896;SDS011;6516;35.028;32.372;2022-12-18T00:26:27;49.80;;;24.80;;
12896;SDS011;6516;35.028;32.372;2022-12-18T00:28:57;48.63;;;24.65;;
12896;SDS011;6516;35.028;32.372;2022-12-18T00:31:26;50.47;;;25.90;;
12896;SDS011;6516;35.028;32.372;2022-12-18T00:33:55;48.92;;;24.95;;
12896;SDS011;6516;35.028;32.372;2022-12-18T00:36:26;48.75;;;23.85;;
12896;SDS011;6516;35.028;32.372;2022-12-18T00:38:58;46.33;;;24.57;;
12896;SDS011;6516;35.028;32.372;2022-12-18T00:41:27;48.63;;;24.98;;
12896;SDS011;6516;35.028;32.372;2022-12-18T00:44:13;51.75;;;25.30;;
12896;SDS011;6516;35.028;32.372;2022-12-18T00:46:43;47.55;;;24.98;;
12896;SDS011;6516;35.028;32.372;2022-12-18T00:49:12;46.22;;;24.27;;
12896;SDS011;6516;35.028;32.372;2022-12-18T00:51:40;51.07;;;25.13;;
12896;SDS011;6516;35.028;32.372;2022-12-18T00:54:10;50.97;;;25.20;;
12896;SDS011;6516;35.028;32.372;2022-12-18T00:56:38;48.58;;;24.58;;
12896;SDS011;6516;35.028;32.372;2022-12-18T00:59:06;47.72;;;24.08;;
12896;SDS011;6516;35.028;32.372;2022-12-18T01:01:34;46.65;;;24.25;;
12896;SDS011;6516;35.028;32.372;2022-12-18T01:04:02;47.80;;;23.70;;
12896;SDS011;6516;35.028;32.372;2022-12-18T01:06:32;46.22;;;23.98;;
12896;SDS011;6516;35.028;32.372;2022-12-18T01:09:00;47.70;;;26.15;;
12896;SDS011;6516;35.028;32.372;2022-12-18T01:11:30;51.33;;;25.13;;
12896;SDS011;6516;35.028;32.372;2022-12-18T01:13:58;50.83;;;24.13;;
12896;SDS011;6516;35.028;32.372;2022-12-18T01:16:26;54.93;;;25.27;;
12896;SDS011;6516;35.028;32.372;2022-12-18T01:18:54;52.47;;;25.02;;
12896;SDS011;6516;35.028;32.372;2022-12-18T01:21:23;51.15;;;24.80;;
12896;SDS011;6516;35.028;32.372;2022-12-18T01:23:51;49.00;;;24.33;;
12896;SDS011;6516;35.028;32.372;2022-12-18T01:26:20;48.50;;;25.10;;
12896;SDS011;6516;35.028;32.372;2022-12-18T01:28:50;46.73;;;24.13;;
12896;SDS011;6516;35.028;32.372;2022-12-18T01:31:18;63.05;;;26.13;;
12896;SDS011;6516;35.028;32.372;2022-12-18T01:33:48;47.30;;;24.42;;
12896;SDS011;6516;35.028;32.372;2022-12-18T01:36:17;48.28;;;24.58;;
12896;SDS011;6516;35.028;32.372;2022-12-18T01:38:50;50.50;;;24.92;;
12896;SDS011;6516;35.028;32.372;2022-12-18T01:41:19;53.27;;;25.57;;
12896;SDS011;6516;35.028;32.372;2022-12-18T01:43:51;49.25;;;24.65;;
12896;SDS011;6516;35.028;32.372;2022-12-18T01:46:22;52.95;;;25.92;;
12896;SDS011;6516;35.028;32.372;2022-12-18T01:48:53;45.20;;;24.48;;
12896;SDS011;6516;35.028;32.372;2022-12-18T01:51:24;50.08;;;24.48;;
12896;SDS011;6516;35.028;32.372;2022-12-18T01:53:53;48.10;;;24.03;;
12896;SDS011;6516;35.028;32.372;2022-12-18T01:56:21;46.97;;;23.48;;
12896;SDS011;6516;35.028;32.372;2022-12-18T01:58:52;45.75;;;24.23;;
12896;SDS011;6516;35.028;32.372;2022-12-18T02:01:26;44.97;;;24.02;;
12896;SDS011;6516;35.028;32.372;2022-12-18T02:04:21;45.08;;;24.08;;
12896;SDS011;6516;35.028;32.372;2022-12-18T02:06:48;48.70;;;23.63;;
12896;SDS011;6516;35.028;32.372;2022-12-18T02:09:25;41.72;;;22.40;;
12896;SDS011;6516;35.028;32.372;2022-12-18T02:11:59;45.00;;;22.88;;
12896;SDS011;6516;35.028;32.372;2022-12-18T02:14:42;41.33;;;21.67;;
12896;SDS011;6516;35.028;32.372;2022-12-18T02:17:16;44.03;;;22.92;;
12896;SDS011;6516;35.028;32.372;2022-12-18T02:19:53;45.90;;;22.77;;
12896;SDS011;6516;35.028;32.372;2022-12-18T02:22:36;43.58;;;22.63;;
12896;SDS011;6516;35.028;32.372;2022-12-18T02:25:17;41.70;;;22.00;;
12896;SDS011;6516;35.028;32.372;2022-12-18T02:27:59;44.70;;;22.20;;
12896;SDS011;6516;35.028;32.372;2022-12-18T02:30:31;43.50;;;22.52;;
12896;SDS011;6516;35.028;32.372;2022-12-18T02:33:04;42.43;;;22.67;;
12896;SDS011;6516;35.028;32.372;2022-12-18T02:35:33;41.95;;;22.15;;
12896;SDS011;6516;35.028;32.372;2022-12-18T02:38:03;41.03;;;22.65;;
12896;SDS011;6516;35.028;32.372;2022-12-18T02:40:31;41.42;;;21.63;;
12896;SDS011;6516;35.028;32.372;2022-12-18T02:43:06;42.22;;;21.90;;
12896;SDS011;6516;35.028;32.372;2022-12-18T02:45:35;41.80;;;21.73;;
12896;SDS011;6516;35.028;32.372;2022-12-18T02:48:12;41.35;;;21.80;;
12896;SDS011;6516;35.028;32.372;2022-12-18T02:50:42;39.78;;;21.20;;
12896;SDS011;6516;35.028;32.372;2022-12-18T02:53:20;43.17;;;21.10;;
12896;SDS011;6516;35.028;32.372;2022-12-18T02:55:57;44.72;;;22.25;;
12896;SDS011;6516;35.028;32.372;2022-12-18T02:58:34;40.03;;;21.07;;
12896;SDS011;6516;35.028;32.372;2022-12-18T03:01:14;42.50;;;21.70;;
12896;SDS011;6516;35.028;32.372;2022-12-18T03:03:49;39.20;;;20.95;;
12896;SDS011;6516;35.028;32.372;2022-12-18T03:06:25;42.05;;;21.10;;
12896;SDS011;6516;35.028;32.372;2022-12-18T03:08:58;40.78;;;21.02;;
12896;SDS011;6516;35.028;32.372;2022-12-18T03:11:30;42.97;;;21.13;;
12896;SDS011;6516;35.028;32.372;2022-12-18T03:14:20;37.08;;;19.92;;
12896;SDS011;6516;35.028;32.372;2022-12-18T03:16:52;36.28;;;20.45;;
12896;SDS011;6516;35.028;32.372;2022-12-18T03:19:27;40.17;;;21.23;;
12896;SDS011;6516;35.028;32.372;2022-12-18T03:22:00;40.10;;;19.88;;
12896;SDS011;6516;35.028;32.372;2022-12-18T03:24:30;43.30;;;21.37;;
12896;SDS011;6516;35.028;32.372;2022-12-18T03:27:02;44.05;;;21.67;;
12896;SDS011;6516;35.028;32.372;2022-12-18T03:29:37;43.22;;;22.30;;
12896;SDS011;6516;35.028;32.372;2022-12-18T03:32:10;41.50;;;21.45;;
12896;SDS011;6516;35.028;32.372;2022-12-18T03:34:43;43.40;;;22.10;;
12896;SDS011;6516;35.028;32.372;2022-12-18T03:37:14;40.07;;;22.00;;
12896;SDS011;6516;35.028;32.372;2022-12-18T03:39:42;46.10;;;22.58;;
12896;SDS011;6516;35.028;32.372;2022-12-18T03:42:11;44.35;;;22.33;;
12896;SDS011;6516;35.028;32.372;2022-12-18T03:44:48;41.63;;;21.73;;
12896;SDS011;6516;35.028;32.372;2022-12-18T03:47:25;42.47;;;22.13;;
12896;SDS011;6516;35.028;32.372;2022-12-18T03:49:59;37.43;;;19.90;;
12896;SDS011;6516;35.028;32.372;2022-12-18T03:52:40;42.55;;;21.98;;
12896;SDS011;6516;35.028;32.372;2022-12-18T03:55:14;41.90;;;22.05;;
12896;SDS011;6516;35.028;32.372;2022-12-18T03:57:44;49.70;;;21.77;;
12896;SDS011;6516;35.028;32.372;2022-12-18T04:00:16;43.55;;;21.70;;
12896;SDS011;6516;35.028;32.372;2022-12-18T04:02:46;43.97;;;21.67;;
12896;SDS011;6516;35.028;32.372;2022-12-18T04:05:18;41.30;;;21.35;;
12896;SDS011;6516;35.028;32.372;2022-12-18T04:07:47;41.78;;;21.77;;
12896;SDS011;6516;35.028;32.372;2022-12-18T04:10:17;39.83;;;20.65;;
12896;SDS011;6516;35.028;32.372;2022-12-18T04:12:45;42.00;;;21.90;;
12896;SDS011;6516;35.028;32.372;2022-12-18T04:15:13;43.53;;;20.53;;
12896;SDS011;6516;35.028;32.372;2022-12-18T04:17:45;39.55;;;22.45;;
12896;SDS011;6516;35.028;32.372;2022-12-18T04:20:15;41.75;;;21.27;;
12896;SDS011;6516;35.028;32.372;2022-12-18T04:22:44;40.55;;;21.08;;
12896;SDS011;6516;35.028;32.372;2022-12-18T04:25:12;41.83;;;21.60;;
12896;SDS011;6516;35.028;32.372;2022-12-18T04:27:40;40.97;;;21.70;;
12896;SDS011;6516;35.028;32.372;2022-12-18T04:30:08;41.03;;;21.15;;
12896;SDS011;6516;35.028;32.372;2022-12-18T04:32:38;42.38;;;20.95;;
12896;SDS011;6516;35.028;32.372;2022-12-18T04:35:07;40.60;;;21.13;;
12896;SDS011;6516;35.028;32.372;2022-12-18T04:37:36;37.15;;;19.73;;
12896;SDS011;6516;35.028;32.372;2022-12-18T04:40:04;38.63;;;19.83;;
12896;SDS011;6516;35.028;32.372;2022-12-18T04:42:34;38.15;;;19.60;;
12896;SDS011;6516;35.028;32.372;2022-12-18T04:45:02;36.78;;;20.42;;
12896;SDS011;6516;35.028;32.372;2022-12-18T04:47:30;39.17;;;20.65;;
12896;SDS011;6516;35.028;32.372;2022-12-18T04:50:00;37.45;;;19.83;;
12896;SDS011;6516;35.028;32.372;2022-12-18T04:52:28;38.93;;;20.23;;
12896;SDS011;6516;35.028;32.372;2022-12-18T04:54:55;37.60;;;19.52;;
12896;SDS011;6516;35.028;32.372;2022-12-18T04:57:23;39.80;;;20.58;;
12896;SDS011;6516;35.028;32.372;2022-12-18T04:59:51;40.72;;;20.02;;
12896;SDS011;6516;35.028;32.372;2022-12-18T05:02:19;37.53;;;19.67;;
12896;SDS011;6516;35.028;32.372;2022-12-18T05:04:46;42.97;;;20.20;;
12896;SDS011;6516;35.028;32.372;2022-12-18T05:07:16;39.58;;;19.10;;
12896;SDS011;6516;35.028;32.372;2022-12-18T05:09:44;37.55;;;18.65;;
12896;SDS011;6516;35.028;32.372;2022-12-18T05:12:11;37.53;;;19.02;;
12896;SDS011;6516;35.028;32.372;2022-12-18T05:14:39;37.45;;;19.23;;
12896;SDS011;6516;35.028;32.372;2022-12-18T05:17:07;36.33;;;20.30;;
12896;SDS011;6516;35.028;32.372;2022-12-18T05:19:35;37.20;;;18.55;;
12896;SDS011;6516;35.028;32.372;2022-12-18T05:22:02;36.08;;;18.95;;
12896;SDS011;6516;35.028;32.372;2022-12-18T05:24:31;31.85;;;18.30;;
12896;SDS011;6516;35.028;32.372;2022-12-18T05:26:59;32.00;;;17.95;;
12896;SDS011;6516;35.028;32.372;2022-12-18T05:29:27;37.20;;;17.53;;
12896;SDS011;6516;35.028;32.372;2022-12-18T05:31:55;32.65;;;17.38;;
12896;SDS011;6516;35.028;32.372;2022-12-18T05:34:23;34.72;;;18.08;;
12896;SDS011;6516;35.028;32.372;2022-12-18T05:36:50;33.17;;;17.38;;
12896;SDS011;6516;35.028;32.372;2022-12-18T05:39:18;33.10;;;18.52;;
12896;SDS011;6516;35.028;32.372;2022-12-18T05:41:47;29.27;;;16.20;;
12896;SDS011;6516;35.028;32.372;2022-12-18T05:44:15;31.50;;;16.98;;
12896;SDS011;6516;35.028;32.372;2022-12-18T05:46:43;32.08;;;18.00;;
12896;SDS011;6516;35.028;32.372;2022-12-18T05:49:10;32.15;;;17.42;;
12896;SDS011;6516;35.028;32.372;2022-12-18T05:51:38;32.35;;;17.05;;
12896;SDS011;6516;35.028;32.372;2022-12-18T05:54:06;31.90;;;17.63;;
12896;SDS011;6516;35.028;32.372;2022-12-18T05:56:34;35.08;;;17.63;;
12896;SDS011;6516;35.028;32.372;2022-12-18T05:59:03;32.33;;;18.20;;
12896;SDS011;6516;35.028;32.372;2022-12-18T06:01:31;30.27;;;17.48;;
12896;SDS011;6516;35.028;32.372;2022-12-18T06:03:59;30.40;;;17.20;;
12896;SDS011;6516;35.028;32.372;2022-12-18T06:06:27;29.20;;;17.03;;
12896;SDS011;6516;35.028;32.372;2022-12-18T06:08:55;27.25;;;16.15;;
12896;SDS011;6516;35.028;32.372;2022-12-18T06:11:24;28.65;;;16.83;;
12896;SDS011;6516;35.028;32.372;2022-12-18T06:13:53;27.38;;;16.75;;
12896;SDS011;6516;35.028;32.372;2022-12-18T06:16:24;27.92;;;15.35;;
12896;SDS011;6516;35.028;32.372;2022-12-18T06:18:52;27.30;;;15.53;;
12896;SDS011;6516;35.028;32.372;2022-12-18T06:21:22;24.52;;;15.05;;
12896;SDS011;6516;35.028;32.372;2022-12-18T06:23:50;22.58;;;14.93;;
12896;SDS011;6516;35.028;32.372;2022-12-18T06:26:17;22.73;;;14.10;;
12896;SDS011;6516;35.028;32.372;2022-12-18T06:28:46;21.10;;;13.98;;
12896;SDS011;6516;35.028;32.372;2022-12-18T06:31:13;21.50;;;13.67;;
12896;SDS011;6516;35.028;32.372;2022-12-18T06:33:43;22.05;;;13.60;;
12896;SDS011;6516;35.028;32.372;2022-12-18T06:36:11;19.75;;;13.27;;
12896;SDS011;6516;35.028;32.372;2022-12-18T06:38:40;18.60;;;12.77;;
12896;SDS011;6516;35.028;32.372;2022-12-18T06:41:10;19.63;;;13.30;;
12896;SDS011;6516;35.028;32.372;2022-12-18T06:43:39;17.97;;;11.97;;
12896;SDS011;6516;35.028;32.372;2022-12-18T06:46:08;17.65;;;10.90;;
12896;SDS011;6516;35.028;32.372;2022-12-18T06:48:36;18.35;;;12.05;;
12896;SDS011;6516;35.028;32.372;2022-12-18T06:51:05;16.98;;;11.20;;
12896;SDS011;6516;35.028;32.372;2022-12-18T06:53:33;17.42;;;11.52;;
12896;SDS011;6516;35.028;32.372;2022-12-18T06:56:01;15.43;;;10.60;;
12896;SDS011;6516;35.028;32.372;2022-12-18T06:58:29;15.18;;;10.85;;
12896;SDS011;6516;35.028;32.372;2022-12-18T07:00:59;15.75;;;11.00;;
12896;SDS011;6516;35.028;32.372;2022-12-18T07:03:27;14.35;;;10.82;;
12896;SDS011;6516;35.028;32.372;2022-12-18T07:05:56;15.30;;;10.75;;
12896;SDS011;6516;35.028;32.372;2022-12-18T07:08:25;15.60;;;10.10;;
12896;SDS011;6516;35.028;32.372;2022-12-18T07:10:53;15.13;;;10.43;;
12896;SDS011;6516;35.028;32.372;2022-12-18T07:13:24;14.43;;;10.38;;
12896;SDS011;6516;35.028;32.372;2022-12-18T07:15:52;13.95;;;9.55;;
12896;SDS011;6516;35.028;32.372;2022-12-18T07:18:19;14.20;;;10.73;;
12896;SDS011;6516;35.028;32.372;2022-12-18T07:20:48;16.27;;;10.17;;
12896;SDS011;6516;35.028;32.372;2022-12-18T07:23:15;14.05;;;10.13;;
12896;SDS011;6516;35.028;32.372;2022-12-18T07:25:45;14.07;;;10.10;;
12896;SDS011;6516;35.028;32.372;2022-12-18T07:28:12;14.05;;;10.30;;
12896;SDS011;6516;35.028;32.372;2022-12-18T07:30:40;14.07;;;10.73;;
12896;SDS011;6516;35.028;32.372;2022-12-18T07:33:08;15.23;;;10.40;;
12896;SDS011;6516;35.028;32.372;2022-12-18T07:35:36;13.77;;;10.40;;
12896;SDS011;6516;35.028;32.372;2022-12-18T07:38:04;14.07;;;10.00;;
12896;SDS011;6516;35.028;32.372;2022-12-18T07:40:31;13.25;;;9.55;;
12896;SDS011;6516;35.028;32.372;2022-12-18T07:43:02;14.95;;;10.77;;
12896;SDS011;6516;35.028;32.372;2022-12-18T07:45:30;14.83;;;10.47;;
12896;SDS011;6516;35.028;32.372;2022-12-18T07:47:58;15.10;;;11.23;;
12896;SDS011;6516;35.028;32.372;2022-12-18T07:50:25;13.75;;;9.82;;
12896;SDS011;6516;35.028;32.372;2022-12-18T07:52:53;15.60;;;9.95;;
12896;SDS011;6516;35.028;32.372;2022-12-18T07:55:21;16.52;;;10.23;;
12896;SDS011;6516;35.028;32.372;2022-12-18T07:57:48;14.90;;;10.80;;
12896;SDS011;6516;35.028;32.372;2022-12-18T08:00:18;14.30;;;9.40;;
12896;SDS011;6516;35.028;32.372;2022-12-18T08:02:46;12.88;;;9.27;;
12896;SDS011;6516;35.028;32.372;2022-12-18T08:05:14;13.18;;;9.40;;
12896;SDS011;6516;35.028;32.372;2022-12-18T08:07:42;11.77;;;9.20;;
12896;SDS011;6516;35.028;32.372;2022-12-18T08:10:09;12.03;;;9.10;;
12896;SDS011;6516;35.028;32.372;2022-12-18T08:12:37;14.00;;;9.35;;
12896;SDS011;6516;35.028;32.372;2022-12-18T08:15:05;12.77;;;9.02;;
12896;SDS011;6516;35.028;32.372;2022-12-18T08:17:36;12.55;;;9.55;;
12896;SDS011;6516;35.028;32.372;2022-12-18T08:20:04;12.35;;;9.13;;
12896;SDS011;6516;35.028;32.372;2022-12-18T08:22:33;12.17;;;9.20;;
12896;SDS011;6516;35.028;32.372;2022-12-18T08:25:06;12.23;;;9.13;;
12896;SDS011;6516;35.028;32.372;2022-12-18T08:27:35;12.25;;;8.93;;
12896;SDS011;6516;35.028;32.372;2022-12-18T08:30:03;12.18;;;9.10;;
12896;SDS011;6516;35.028;32.372;2022-12-18T08:32:33;12.75;;;9.43;;
12896;SDS011;6516;35.028;32.372;2022-12-18T08:35:03;11.97;;;8.53;;
12896;SDS011;6516;35.028;32.372;2022-12-18T08:37:33;13.15;;;9.27;;
12896;SDS011;6516;35.028;32.372;2022-12-18T08:40:01;13.02;;;9.32;;
12896;SDS011;6516;35.028;32.372;2022-12-18T08:42:28;14.57;;;9.18;;
12896;SDS011;6516;35.028;32.372;2022-12-18T08:45:13;12.82;;;8.95;;
12896;SDS011;6516;35.028;32.372;2022-12-18T08:47:42;12.20;;;9.10;;
12896;SDS011;6516;35.028;32.372;2022-12-18T08:50:11;11.73;;;8.65;;
12896;SDS011;6516;35.028;32.372;2022-12-18T08:52:41;12.82;;;9.30;;
12896;SDS011;6516;35.028;32.372;2022-12-18T08:55:09;12.15;;;8.93;;
12896;SDS011;6516;35.028;32.372;2022-12-18T08:57:37;11.65;;;8.52;;
12896;SDS011;6516;35.028;32.372;2022-12-18T09:00:05;11.30;;;8.53;;
12896;SDS011;6516;35.028;32.372;2022-12-18T09:02:34;12.40;;;9.45;;
12896;SDS011;6516;35.028;32.372;2022-12-18T09:05:02;11.27;;;9.07;;
12896;SDS011;6516;35.028;32.372;2022-12-18T09:07:32;12.40;;;9.30;;
12896;SDS011;6516;35.028;32.372;2022-12-18T09:10:00;13.00;;;9.15;;
12896;SDS011;6516;35.028;32.372;2022-12-18T09:12:27;12.60;;;9.00;;
12896;SDS011;6516;35.028;32.372;2022-12-18T09:14:55;11.77;;;8.75;;
12896;SDS011;6516;35.028;32.372;2022-12-18T09:17:23;12.02;;;8.93;;
12896;SDS011;6516;35.028;32.372;2022-12-18T09:19:50;12.10;;;9.27;;
12896;SDS011;6516;35.028;32.372;2022-12-18T09:22:18;12.52;;;9.38;;
12896;SDS011;6516;35.028;32.372;2022-12-18T09:24:47;12.33;;;9.07;;
12896;SDS011;6516;35.028;32.372;2022-12-18T09:27:16;12.63;;;9.00;;
12896;SDS011;6516;35.028;32.372;2022-12-18T09:29:43;14.98;;;9.75;;
12896;SDS011;6516;35.028;32.372;2022-12-18T09:32:11;12.35;;;9.02;;
12896;SDS011;6516;35.028;32.372;2022-12-18T09:34:39;12.48;;;8.65;;
12896;SDS011;6516;35.028;32.372;2022-12-18T09:37:07;14.77;;;9.10;;
12896;SDS011;6516;35.028;32.372;2022-12-18T09:39:35;12.63;;;9.32;;
12896;SDS011;6516;35.028;32.372;2022-12-18T09:42:05;12.95;;;9.30;;
12896;SDS011;6516;35.028;32.372;2022-12-18T09:44:36;11.68;;;8.93;;
12896;SDS011;6516;35.028;32.372;2022-12-18T09:47:12;12.20;;;9.00;;
12896;SDS011;6516;35.028;32.372;2022-12-18T09:49:46;13.40;;;8.90;;
12896;SDS011;6516;35.028;32.372;2022-12-18T09:52:17;12.80;;;8.80;;
12896;SDS011;6516;35.028;32.372;2022-12-18T09:54:51;12.40;;;9.20;;
12896;SDS011;6516;35.028;32.372;2022-12-18T09:57:24;11.30;;;8.30;;
12896;SDS011;6516;35.028;32.372;2022-12-18T09:59:54;11.98;;;8.20;;
12896;SDS011;6516;35.028;32.372;2022-12-18T10:02:25;13.17;;;8.47;;
12896;SDS011;6516;35.028;32.372;2022-12-18T10:05:02;13.63;;;9.20;;
12896;SDS011;6516;35.028;32.372;2022-12-18T10:07:40;12.27;;;9.00;;
12896;SDS011;6516;35.028;32.372;2022-12-18T10:10:23;11.57;;;8.95;;
12896;SDS011;6516;35.028;32.372;2022-12-18T10:13:05;12.73;;;8.85;;
12896;SDS011;6516;35.028;32.372;2022-12-18T10:15:47;11.20;;;8.23;;
12896;SDS011;6516;35.028;32.372;2022-12-18T10:18:27;10.88;;;8.43;;
12896;SDS011;6516;35.028;32.372;2022-12-18T10:21:10;16.30;;;11.30;;
12896;SDS011;6516;35.028;32.372;2022-12-18T10:23:43;14.40;;;10.85;;
12896;SDS011;6516;35.028;32.372;2022-12-18T10:26:20;18.65;;;14.02;;
12896;SDS011;6516;35.028;32.372;2022-12-18T10:28:49;17.70;;;12.20;;
12896;SDS011;6516;35.028;32.372;2022-12-18T10:31:19;15.98;;;12.05;;
12896;SDS011;6516;35.028;32.372;2022-12-18T10:33:49;16.25;;;11.93;;
12896;SDS011;6516;35.028;32.372;2022-12-18T10:36:17;19.95;;;14.98;;
12896;SDS011;6516;35.028;32.372;2022-12-18T10:38:45;16.02;;;12.00;;
12896;SDS011;6516;35.028;32.372;2022-12-18T10:41:23;15.17;;;11.30;;
12896;SDS011;6516;35.028;32.372;2022-12-18T10:46:45;13.32;;;11.05;;
12896;SDS011;6516;35.028;32.372;2022-12-18T10:49:19;13.70;;;11.07;;
12896;SDS011;6516;35.028;32.372;2022-12-18T10:51:50;12.27;;;9.65;;
12896;SDS011;6516;35.028;32.372;2022-12-18T10:54:32;11.47;;;9.07;;
12896;SDS011;6516;35.028;32.372;2022-12-18T10:57:13;11.73;;;9.18;;
12896;SDS011;6516;35.028;32.372;2022-12-18T10:59:51;13.50;;;9.80;;
12896;SDS011;6516;35.028;32.372;2022-12-18T11:02:28;11.68;;;8.82;;
12896;SDS011;6516;35.028;32.372;2022-12-18T11:05:02;18.10;;;13.88;;
12896;SDS011;6516;35.028;32.372;2022-12-18T11:07:50;13.47;;;10.13;;
12896;SDS011;6516;35.028;32.372;2022-12-18T11:10:19;13.60;;;10.05;;
12896;SDS011;6516;35.028;32.372;2022-12-18T11:12:49;13.38;;;9.52;;
12896;SDS011;6516;35.028;32.372;2022-12-18T11:15:20;13.75;;;9.80;;
12896;SDS011;6516;35.028;32.372;2022-12-18T11:17:52;13.35;;;10.07;;
12896;SDS011;6516;35.028;32.372;2022-12-18T11:20:24;14.23;;;9.60;;
12896;SDS011;6516;35.028;32.372;2022-12-18T11:22:58;13.75;;;10.05;;
12896;SDS011;6516;35.028;32.372;2022-12-18T11:25:29;12.70;;;9.95;;
12896;SDS011;6516;35.028;32.372;2022-12-18T11:27:59;12.00;;;9.27;;
12896;SDS011;6516;35.028;32.372;2022-12-18T11:30:31;12.05;;;8.88;;
12896;SDS011;6516;35.028;32.372;2022-12-18T11:33:01;11.90;;;9.07;;
12896;SDS011;6516;35.028;32.372;2022-12-18T11:35:37;13.00;;;9.38;;
12896;SDS011;6516;35.028;32.372;2022-12-18T11:38:13;15.18;;;10.23;;
12896;SDS011;6516;35.028;32.372;2022-12-18T11:40:51;13.13;;;9.52;;
12896;SDS011;6516;35.028;32.372;2022-12-18T11:43:27;15.35;;;9.65;;
12896;SDS011;6516;35.028;32.372;2022-12-18T11:46:01;12.57;;;9.73;;
12896;SDS011;6516;35.028;32.372;2022-12-18T11:48:33;13.63;;;9.65;;
12896;SDS011;6516;35.028;32.372;2022-12-18T11:51:05;16.42;;;9.77;;
12896;SDS011;6516;35.028;32.372;2022-12-18T11:53:41;12.82;;;9.52;;
12896;SDS011;6516;35.028;32.372;2022-12-18T11:56:15;13.25;;;10.20;;
12896;SDS011;6516;35.028;32.372;2022-12-18T11:58:58;12.60;;;9.63;;
12896;SDS011;6516;35.028;32.372;2022-12-18T12:01:43;13.40;;;10.07;;
12896;SDS011;6516;35.028;32.372;2022-12-18T12:04:32;12.35;;;9.07;;
12896;SDS011;6516;35.028;32.372;2022-12-18T12:07:28;10.70;;;8.40;;
12896;SDS011;6516;35.028;32.372;2022-12-18T12:10:09;11.98;;;8.60;;
12896;SDS011;6516;35.028;32.372;2022-12-18T12:12:55;10.40;;;7.80;;
12896;SDS011;6516;35.028;32.372;2022-12-18T12:15:39;12.20;;;9.00;;
12896;SDS011;6516;35.028;32.372;2022-12-18T12:18:22;14.88;;;9.00;;
12896;SDS011;6516;35.028;32.372;2022-12-18T12:21:01;10.77;;;8.10;;
12896;SDS011;6516;35.028;32.372;2022-12-18T12:23:37;11.82;;;8.65;;
12896;SDS011;6516;35.028;32.372;2022-12-18T12:26:14;10.93;;;8.20;;
12896;SDS011;6516;35.028;32.372;2022-12-18T12:28:52;12.15;;;8.15;;
12896;SDS011;6516;35.028;32.372;2022-12-18T12:31:33;10.70;;;7.97;;
12896;SDS011;6516;35.028;32.372;2022-12-18T12:34:33;9.65;;;7.30;;
12896;SDS011;6516;35.028;32.372;2022-12-18T12:37:15;10.65;;;7.30;;
12896;SDS011;6516;35.028;32.372;2022-12-18T12:39:52;10.23;;;7.47;;
12896;SDS011;6516;35.028;32.372;2022-12-18T12:42:23;9.75;;;7.28;;
12896;SDS011;6516;35.028;32.372;2022-12-18T12:45:28;10.07;;;7.43;;
12896;SDS011;6516;35.028;32.372;2022-12-18T12:48:03;10.70;;;7.10;;
12896;SDS011;6516;35.028;32.372;2022-12-18T12:50:38;10.55;;;7.45;;
12896;SDS011;6516;35.028;32.372;2022-12-18T12:53:09;11.03;;;7.53;;
12896;SDS011;6516;35.028;32.372;2022-12-18T12:55:49;10.45;;;7.30;;
12896;SDS011;6516;35.028;32.372;2022-12-18T12:58:18;12.75;;;8.65;;
12896;SDS011;6516;35.028;32.372;2022-12-18T13:00:54;12.88;;;9.07;;
12896;SDS011;6516;35.028;32.372;2022-12-18T13:03:30;11.20;;;8.10;;
12896;SDS011;6516;35.028;32.372;2022-12-18T13:06:12;11.83;;;8.30;;
12896;SDS011;6516;35.028;32.372;2022-12-18T13:08:54;11.55;;;8.27;;
12896;SDS011;6516;35.028;32.372;2022-12-18T13:11:29;11.75;;;8.85;;
12896;SDS011;6516;35.028;32.372;2022-12-18T13:14:26;11.85;;;8.85;;
12896;SDS011;6516;35.028;32.372;2022-12-18T13:20:02;12.37;;;8.87;;
12896;SDS011;6516;35.028;32.372;2022-12-18T13:22:38;12.38;;;9.57;;
12896;SDS011;6516;35.028;32.372;2022-12-18T13:28:05;12.70;;;9.02;;
12896;SDS011;6516;35.028;32.372;2022-12-18T13:30:50;13.07;;;10.18;;
12896;SDS011;6516;35.028;32.372;2022-12-18T13:36:25;14.63;;;9.45;;
12896;SDS011;6516;35.028;32.372;2022-12-18T13:41:52;13.30;;;9.55;;
12896;SDS011;6516;35.028;32.372;2022-12-18T13:44:25;13.75;;;10.30;;
12896;SDS011;6516;35.028;32.372;2022-12-18T13:46:58;12.13;;;9.00;;
12896;SDS011;6516;35.028;32.372;2022-12-18T13:49:28;13.90;;;10.05;;
12896;SDS011;6516;35.028;32.372;2022-12-18T13:52:14;14.38;;;10.50;;
12896;SDS011;6516;35.028;32.372;2022-12-18T13:54:49;14.27;;;10.23;;
12896;SDS011;6516;35.028;32.372;2022-12-18T13:57:27;13.30;;;10.15;;
12896;SDS011;6516;35.028;32.372;2022-12-18T13:59:57;14.00;;;10.20;;
12896;SDS011;6516;35.028;32.372;2022-12-18T14:02:41;13.45;;;9.43;;
12896;SDS011;6516;35.028;32.372;2022-12-18T14:05:21;13.57;;;10.45;;
12896;SDS011;6516;35.028;32.372;2022-12-18T14:07:49;14.27;;;10.60;;
12896;SDS011;6516;35.028;32.372;2022-12-18T14:10:20;14.30;;;10.27;;
12896;SDS011;6516;35.028;32.372;2022-12-18T14:12:49;14.63;;;10.73;;
12896;SDS011;6516;35.028;32.372;2022-12-18T14:15:25;17.42;;;11.02;;
12896;SDS011;6516;35.028;32.372;2022-12-18T14:17:59;15.38;;;10.52;;
12896;SDS011;6516;35.028;32.372;2022-12-18T14:20:31;14.60;;;10.55;;
12896;SDS011;6516;35.028;32.372;2022-12-18T14:23:01;17.75;;;12.00;;
12896;SDS011;6516;35.028;32.372;2022-12-18T14:25:30;15.17;;;10.93;;
12896;SDS011;6516;35.028;32.372;2022-12-18T14:28:02;21.50;;;12.10;;
12896;SDS011;6516;35.028;32.372;2022-12-18T14:30:42;18.95;;;12.57;;
12896;SDS011;6516;35.028;32.372;2022-12-18T14:33:13;18.02;;;12.10;;
12896;SDS011;6516;35.028;32.372;2022-12-18T14:35:51;16.52;;;12.18;;
12896;SDS011;6516;35.028;32.372;2022-12-18T14:38:27;21.00;;;12.63;;
12896;SDS011;6516;35.028;32.372;2022-12-18T14:40:58;19.13;;;13.10;;
12896;SDS011;6516;35.028;32.372;2022-12-18T14:43:28;20.65;;;13.23;;
12896;SDS011;6516;35.028;32.372;2022-12-18T14:46:00;19.13;;;12.50;;
12896;SDS011;6516;35.028;32.372;2022-12-18T14:48:33;19.67;;;13.48;;
12896;SDS011;6516;35.028;32.372;2022-12-18T14:51:04;59.07;;;44.43;;
12896;SDS011;6516;35.028;32.372;2022-12-18T14:53:40;42.65;;;28.67;;
12896;SDS011;6516;35.028;32.372;2022-12-18T14:56:13;131.20;;;85.65;;
12896;SDS011;6516;35.028;32.372;2022-12-18T14:58:45;53.28;;;35.35;;
12896;SDS011;6516;35.028;32.372;2022-12-18T15:01:18;40.58;;;26.77;;
12896;SDS011;6516;35.028;32.372;2022-12-18T15:03:52;36.60;;;25.07;;
12896;SDS011;6516;35.028;32.372;2022-12-18T15:06:25;38.58;;;25.42;;
12896;SDS011;6516;35.028;32.372;2022-12-18T15:08:59;39.22;;;26.48;;